Hebron, Arkansas
Current Conditions -  °F | °C
As of 5:53 PM on Sunday 23 Nov 2014 (Local Time) from KLLQ Reporting Station
Clear Clear  
Wind Chill: 63°   Ceiling: Unl
Heat Index: 63°   Visibility: 10mi
Dew Point: 60°   Wind: 10mph
Humidity: 90%   Direction: 190°S
Pressure: 29.44"   Gusts: NA
Location:  33.7656°N, 92.1916°W
Report Text: KLLQ 232353Z AUTO 19009KT 10SM CLR 17/16 A2944 RMK AO2 SLP967 60012 T01720156 10183 20156 53010
Loading
Personal Weather Stations






























Interactive Weather Map New forecast layout! Learn more

10-Day Weather Forecast

Advertisements
Track Severe Weather on mobile